MMTG/TGZ METAR and TAF weather

Enter ICAO airport designator
Station Type Date Time Source
MMTG METAR 2020/12/06 01:49 UTC NOAA

MMTG 060149Z 31010KT 8SM SCT018 BKN070 BKN300 22/17 A3003 RMK 8/722


Station Type Date Time Source
MMTG Decoded METAR 2020/12/06 01:49 UTC NOAA

Tuxtla Gutierrez, Chis., Mexico (MMTG) 16-45N 093-07W
Dec 05, 2020 - 08:49 PM EST / 2020.12.06 0149 UTC
Wind: from the NW (310 degrees) at 12 MPH (10 KT):0
Visibility: 8 mile(s):0
Sky conditions: mostly cloudy
Temperature: 71 F (22 C)
Dew Point: 62 F (17 C)
Relative Humidity: 73%
Pressure (altimeter): 30.03 in. Hg (1016 hPa)
ob: MMTG 060149Z 31010KT 8SM SCT018 BKN070 BKN300 22/17 A3003 RMK 8/722
cycle: 2

Station Type Date Time Source
MMTG TAF 2020/12/05 18:37 UTC NOAA

TAF MMTG 051729Z 0518/0618 35005KT P6SM SCT018 BKN070 OVC300
FM052000 35010KT P6SM BKN020 OVC080
TEMPO 0602/0606 5SM RA
FM060600 00000KT 5SM HZ BKN015 OVC070
FM061600 34006KT P6SM BKN020 BKN070

Example: see airport list